createdAt,value
2019-05-18T00:00:04.002Z,8.55
2019-05-18T00:02:08.750Z,9.98
2019-05-18T00:04:13.545Z,10.60
2019-05-18T00:06:18.322Z,13.65
2019-05-18T00:08:23.132Z,10.72
2019-05-18T00:10:28.028Z,9.30
2019-05-18T00:12:32.802Z,9.08
2019-05-18T00:14:37.616Z,13.35
2019-05-18T00:16:42.382Z,10.13
2019-05-18T00:18:47.179Z,9.40
2019-05-18T00:20:52.035Z,10.30
2019-05-18T00:22:56.815Z,10.00
2019-05-18T00:25:01.606Z,11.12
2019-05-18T00:27:06.378Z,9.88
2019-05-18T00:29:11.161Z,11.22
2019-05-18T00:31:16.006Z,20.75
2019-05-18T00:33:20.858Z,11.20
2019-05-18T00:35:25.690Z,9.75
2019-05-18T00:37:30.463Z,10.82
2019-05-18T00:39:35.241Z,9.28
2019-05-18T00:41:40.106Z,9.78
2019-05-18T00:43:44.879Z,14.68
2019-05-18T00:45:49.645Z,13.03
2019-05-18T00:47:54.514Z,10.68
2019-05-18T00:49:59.354Z,12.35
2019-05-18T00:52:04.110Z,12.07
2019-05-18T00:54:09.003Z,10.35
2019-05-18T00:56:13.786Z,12.07
2019-05-18T00:58:18.575Z,14.05
2019-05-18T01:00:23.418Z,11.45
2019-05-18T01:02:28.222Z,12.68
2019-05-18T01:04:33.039Z,12.65
2019-05-18T01:06:37.807Z,9.15
2019-05-18T01:08:42.602Z,9.53
2019-05-18T01:10:47.366Z,10.38
2019-05-18T01:12:52.174Z,8.85
2019-05-18T01:14:56.970Z,11.03
2019-05-18T01:17:01.761Z,8.95
2019-05-18T01:19:06.602Z,10.58
2019-05-18T01:21:11.932Z,9.08
2019-05-18T01:23:16.770Z,10.78
2019-05-18T01:25:21.582Z,9.25
2019-05-18T01:27:26.337Z,13.35
2019-05-18T01:29:31.106Z,9.05
2019-05-18T01:31:35.953Z,9.70
2019-05-18T01:33:40.706Z,13.98
2019-05-18T01:35:45.470Z,18.62
2019-05-18T01:37:50.274Z,9.28
2019-05-18T01:39:55.040Z,11.03
2019-05-18T01:41:59.854Z,11.10
2019-05-18T01:44:04.666Z,8.95
2019-05-18T01:46:09.454Z,12.43
2019-05-18T01:48:14.735Z,9.53
2019-05-18T01:50:19.574Z,9.98
2019-05-18T01:52:24.418Z,11.00
2019-05-18T01:54:29.256Z,12.03
2019-05-18T01:56:34.009Z,9.33
2019-05-18T01:58:40.867Z,11.65
2019-05-18T02:00:45.679Z,12.43
2019-05-18T02:02:50.451Z,10.08
2019-05-18T02:04:55.255Z,11.15
2019-05-18T02:07:00.008Z,10.08
2019-05-18T02:09:07.162Z,9.18
2019-05-18T02:11:12.028Z,11.40
2019-05-18T02:13:16.770Z,9.53
2019-05-18T02:15:21.542Z,9.95
2019-05-18T02:17:26.322Z,10.05
2019-05-18T02:19:31.086Z,9.50
2019-05-18T02:21:35.949Z,12.10
2019-05-18T02:23:40.770Z,10.32
2019-05-18T02:25:45.518Z,8.95
2019-05-18T02:27:50.310Z,12.85
2019-05-18T02:29:55.082Z,13.75
2019-05-18T02:31:59.883Z,13.00
2019-05-18T02:34:04.754Z,10.80
2019-05-18T02:36:09.619Z,12.63
2019-05-18T02:38:15.600Z,9.78
2019-05-18T02:40:20.411Z,9.28
2019-05-18T02:42:25.239Z,15.15
2019-05-18T02:44:30.075Z,10.00
2019-05-18T02:46:34.878Z,12.05
2019-05-18T02:48:49.530Z,9.58
2019-05-18T02:50:46.077Z,11.33
2019-05-18T02:52:50.948Z,9.25
2019-05-18T02:54:55.800Z,12.63
2019-05-18T02:57:00.631Z,10.65
2019-05-18T02:59:05.417Z,13.48
2019-05-18T03:01:10.190Z,13.05
2019-05-18T03:03:14.989Z,9.75
2019-05-18T03:05:19.771Z,10.35
2019-05-18T03:07:24.525Z,9.30
2019-05-18T03:09:29.304Z,12.03
2019-05-18T03:11:34.494Z,11.88
2019-05-18T03:13:39.252Z,10.93
2019-05-18T03:15:44.023Z,9.88
2019-05-18T03:17:48.803Z,10.80
2019-05-18T03:19:53.562Z,9.88
2019-05-18T03:22:00.924Z,10.00
2019-05-18T03:24:04.862Z,11.10
2019-05-18T03:26:11.242Z,11.43
2019-05-18T03:28:16.046Z,9.75
2019-05-18T03:30:20.841Z,12.43
2019-05-18T03:32:25.659Z,10.35
2019-05-18T03:34:30.445Z,12.63
2019-05-18T03:36:35.297Z,11.20
2019-05-18T03:38:40.142Z,11.12
2019-05-18T03:40:44.972Z,13.75
2019-05-18T03:42:49.743Z,12.37
2019-05-18T03:44:54.607Z,11.50
2019-05-18T03:46:59.379Z,11.12
2019-05-18T03:49:04.130Z,13.40
2019-05-18T03:51:08.934Z,10.15
2019-05-18T03:53:13.774Z,13.70
2019-05-18T03:55:20.221Z,10.20
2019-05-18T03:57:25.083Z,13.98
2019-05-18T03:59:29.864Z,11.95
2019-05-18T04:01:34.622Z,10.48
2019-05-18T04:03:39.530Z,12.33
2019-05-18T04:05:44.279Z,11.88
2019-05-18T04:07:49.032Z,8.98
2019-05-18T04:09:53.885Z,9.95
2019-05-18T04:11:58.719Z,10.88
2019-05-18T04:14:08.487Z,11.63
2019-05-18T04:16:13.707Z,13.10
2019-05-18T04:18:18.503Z,13.35
2019-05-18T04:20:23.287Z,12.73
2019-05-18T04:22:28.116Z,12.03
2019-05-18T04:24:33.918Z,11.57
2019-05-18T04:26:38.668Z,9.05
2019-05-18T04:28:43.414Z,9.00
2019-05-18T04:30:48.259Z,9.95
2019-05-18T04:32:53.015Z,15.05
2019-05-18T04:34:57.946Z,11.45
2019-05-18T04:37:02.734Z,13.25
2019-05-18T04:39:08.114Z,11.97
2019-05-18T04:41:13.609Z,11.30
2019-05-18T04:43:19.003Z,10.85
2019-05-18T04:45:24.475Z,10.78
2019-05-18T04:47:29.893Z,11.20
2019-05-18T04:49:35.393Z,11.73
2019-05-18T04:51:40.918Z,10.68
2019-05-18T04:53:46.339Z,10.13
2019-05-18T04:55:51.762Z,12.10
2019-05-18T04:57:57.209Z,11.60
2019-05-18T05:00:02.116Z,11.43
2019-05-18T05:02:06.937Z,12.30
2019-05-18T05:04:11.790Z,10.82
2019-05-18T05:06:16.630Z,9.98
2019-05-18T05:08:21.485Z,11.45
2019-05-18T05:10:26.252Z,10.72
2019-05-18T05:12:31.006Z,10.65
2019-05-18T05:14:35.851Z,11.43
2019-05-18T05:16:40.618Z,10.72
2019-05-18T05:18:45.418Z,11.60
2019-05-18T05:20:50.199Z,14.93
2019-05-18T05:22:54.931Z,12.25
2019-05-18T05:24:59.655Z,14.65
2019-05-18T05:27:04.386Z,12.45
2019-05-18T05:29:09.205Z,16.57
2019-05-18T05:31:13.995Z,13.58
2019-05-18T05:33:18.707Z,12.28
2019-05-18T05:35:23.472Z,13.40
2019-05-18T05:37:28.279Z,13.75
2019-05-18T05:39:33.058Z,12.82
2019-05-18T05:41:37.779Z,13.30
2019-05-18T05:43:42.502Z,13.58
2019-05-18T05:45:47.234Z,15.18
2019-05-18T05:47:51.970Z,12.70
2019-05-18T05:49:56.791Z,11.68
2019-05-18T05:52:01.505Z,12.37
2019-05-18T05:54:06.290Z,13.35
2019-05-18T05:56:11.076Z,12.33
2019-05-18T05:58:15.788Z,13.15
2019-05-18T06:00:21.319Z,12.90
2019-05-18T06:02:26.054Z,14.28
2019-05-18T06:04:30.799Z,12.93
2019-05-18T06:06:35.530Z,12.35
2019-05-18T06:08:40.245Z,13.68
2019-05-18T06:10:45.027Z,15.13
2019-05-18T06:12:49.822Z,12.98
2019-05-18T06:14:54.533Z,14.85
2019-05-18T06:16:59.283Z,13.28
2019-05-18T06:19:04.094Z,11.53
2019-05-18T06:21:08.907Z,12.00
2019-05-18T06:23:13.691Z,17.30
2019-05-18T06:25:18.401Z,13.05
2019-05-18T06:27:23.344Z,14.70
2019-05-18T06:29:27.808Z,13.20
2019-05-18T06:31:32.254Z,13.63
2019-05-18T06:33:36.778Z,13.27
2019-05-18T06:35:41.270Z,14.30
2019-05-18T06:37:45.763Z,15.27
2019-05-18T06:39:50.283Z,11.90
2019-05-18T06:41:54.834Z,12.40
2019-05-18T06:43:59.359Z,12.53
2019-05-18T06:46:03.911Z,14.50
2019-05-18T06:48:08.370Z,13.57
2019-05-18T06:50:13.370Z,13.50
2019-05-18T06:52:18.110Z,11.50
2019-05-18T06:54:22.954Z,12.82
2019-05-18T06:56:27.539Z,12.73
2019-05-18T06:58:32.059Z,12.20
2019-05-18T07:00:36.487Z,12.37
2019-05-18T07:02:40.917Z,13.10
2019-05-18T07:04:45.401Z,11.40
2019-05-18T07:06:49.918Z,14.03
2019-05-18T07:08:54.366Z,11.80
2019-05-18T07:10:58.874Z,12.10
2019-05-18T07:13:03.312Z,10.40
2019-05-18T07:15:08.150Z,12.83
2019-05-18T07:17:12.862Z,11.20
2019-05-18T07:19:17.310Z,9.43
2019-05-18T07:21:22.794Z,10.70
2019-05-18T07:23:27.537Z,11.08
2019-05-18T07:25:32.277Z,10.55
2019-05-18T07:27:37.008Z,13.22
2019-05-18T07:29:41.814Z,14.75
2019-05-18T07:31:46.258Z,10.87
2019-05-18T07:33:50.990Z,11.25
2019-05-18T07:35:55.764Z,11.18
2019-05-18T07:38:00.607Z,12.95
2019-05-18T07:40:05.526Z,10.23
2019-05-18T07:42:10.423Z,10.72
2019-05-18T07:44:14.870Z,10.93
2019-05-18T07:46:19.310Z,10.00
2019-05-18T07:48:23.770Z,10.77
2019-05-18T07:50:28.198Z,9.77
2019-05-18T07:52:33.026Z,9.77
2019-05-18T07:54:37.475Z,12.77
2019-05-18T07:56:42.347Z,11.33
2019-05-18T07:58:46.855Z,11.50
2019-05-18T08:00:51.377Z,11.00
2019-05-18T08:02:55.923Z,10.20
2019-05-18T08:05:00.408Z,11.83
2019-05-18T08:07:04.838Z,11.30
2019-05-18T08:09:09.274Z,10.40
2019-05-18T08:11:13.731Z,11.57
2019-05-18T08:13:18.219Z,10.93
2019-05-18T08:15:22.660Z,11.80
2019-05-18T08:17:27.094Z,10.70
2019-05-18T08:19:31.522Z,10.27
2019-05-18T08:21:35.967Z,11.00
2019-05-18T08:23:40.390Z,10.90
2019-05-18T08:25:44.859Z,12.67
2019-05-18T08:27:49.286Z,9.90
2019-05-18T08:29:53.731Z,12.53
2019-05-18T08:31:58.494Z,10.23
2019-05-18T08:34:02.942Z,10.30
2019-05-18T08:36:07.399Z,10.70
2019-05-18T08:38:11.826Z,11.60
2019-05-18T08:40:16.359Z,10.47
2019-05-18T08:42:20.790Z,9.50
2019-05-18T08:44:25.219Z,10.17
2019-05-18T08:46:29.662Z,11.63
2019-05-18T08:48:34.091Z,9.20
2019-05-18T08:50:38.613Z,23.00
2019-05-18T08:52:43.078Z,23.43
2019-05-18T08:54:47.602Z,12.83
2019-05-18T08:56:52.027Z,10.47
2019-05-18T08:58:56.480Z,17.40
2019-05-18T09:01:00.914Z,14.47
2019-05-18T09:03:05.360Z,12.57
2019-05-18T09:05:09.971Z,9.97
2019-05-18T09:07:14.586Z,12.97
2019-05-18T09:09:19.186Z,10.47
2019-05-18T09:11:24.231Z,11.60
2019-05-18T09:13:29.798Z,11.90
2019-05-18T09:15:34.947Z,20.20
2019-05-18T09:17:40.174Z,11.43
2019-05-18T09:19:45.336Z,11.43
2019-05-18T09:21:50.597Z,18.17
2019-05-18T09:23:55.810Z,18.07
2019-05-18T09:26:03.656Z,16.43
2019-05-18T09:28:08.859Z,16.90
2019-05-18T09:30:14.337Z,16.90
2019-05-18T09:32:19.649Z,16.63
2019-05-18T09:34:24.908Z,16.70
2019-05-18T09:36:30.119Z,15.03
2019-05-18T09:38:35.311Z,15.70
2019-05-18T09:40:40.523Z,14.47
2019-05-18T09:42:45.797Z,13.07
2019-05-18T09:44:51.031Z,14.73
2019-05-18T09:46:56.270Z,12.27
2019-05-18T09:49:00.870Z,13.73
2019-05-18T09:51:06.073Z,12.80
2019-05-18T09:53:11.247Z,11.87
2019-05-18T09:55:16.429Z,12.73
2019-05-18T09:57:21.978Z,12.23
2019-05-18T09:59:27.127Z,12.77
2019-05-18T10:01:32.267Z,11.70
2019-05-18T10:03:37.402Z,11.80
2019-05-18T10:05:42.567Z,11.40
2019-05-18T10:07:47.699Z,12.27
2019-05-18T10:09:52.958Z,11.30
2019-05-18T10:11:58.157Z,12.03
2019-05-18T10:14:03.329Z,11.37
2019-05-18T10:16:08.511Z,10.67
2019-05-18T10:18:13.662Z,15.50
2019-05-18T10:20:18.950Z,11.67
2019-05-18T10:22:24.134Z,12.90
2019-05-18T10:24:29.346Z,12.23
2019-05-18T10:26:34.543Z,12.23
2019-05-18T10:28:39.725Z,10.97
2019-05-18T10:30:44.935Z,11.90
2019-05-18T10:32:50.127Z,14.67
2019-05-18T10:34:55.395Z,12.80
2019-05-18T10:36:59.966Z,12.20
2019-05-18T10:39:06.430Z,14.97
2019-05-18T10:41:10.925Z,14.50
2019-05-18T10:43:15.418Z,13.90
2019-05-18T10:45:20.031Z,17.13
2019-05-18T10:47:24.624Z,17.77
2019-05-18T10:49:29.223Z,13.67
2019-05-18T10:51:33.727Z,17.10
2019-05-18T10:53:38.232Z,15.80
2019-05-18T10:55:42.758Z,15.73
2019-05-18T10:57:47.267Z,14.97
2019-05-18T10:59:51.778Z,17.90
2019-05-18T11:01:56.291Z,17.20
2019-05-18T11:04:00.778Z,15.10
2019-05-18T11:06:05.358Z,17.87
2019-05-18T11:08:10.124Z,18.33
2019-05-18T11:10:15.039Z,16.50
2019-05-18T11:12:19.522Z,16.00
2019-05-18T11:14:24.026Z,16.40
2019-05-18T11:16:28.595Z,16.57
2019-05-18T11:18:33.086Z,17.90
2019-05-18T11:20:37.618Z,15.80
2019-05-18T11:22:42.183Z,18.10
2019-05-18T11:24:46.713Z,19.80
2019-05-18T11:26:51.205Z,19.87
2019-05-18T11:28:55.688Z,19.93
2019-05-18T11:31:00.218Z,21.10
2019-05-18T11:33:04.736Z,22.10
2019-05-18T11:35:09.360Z,18.27
2019-05-18T11:37:13.878Z,19.17
2019-05-18T11:39:18.379Z,21.57
2019-05-18T11:41:22.970Z,21.40
2019-05-18T11:43:27.562Z,20.63
2019-05-18T11:45:32.079Z,19.07
2019-05-18T11:47:36.582Z,19.57
2019-05-18T11:49:41.063Z,20.20
2019-05-18T11:51:45.625Z,18.77
2019-05-18T11:53:57.789Z,18.90
2019-05-18T11:55:56.346Z,19.60
2019-05-18T11:58:00.947Z,20.47
2019-05-18T12:00:05.762Z,18.63
2019-05-18T12:02:10.277Z,24.80
2019-05-18T12:04:14.858Z,20.17
2019-05-18T12:06:19.351Z,22.03
2019-05-18T12:08:23.887Z,20.60
2019-05-18T12:10:28.414Z,22.43
2019-05-18T12:12:32.935Z,22.83
2019-05-18T12:14:37.512Z,24.60
2019-05-18T12:16:42.014Z,24.27
2019-05-18T12:18:46.562Z,26.03
2019-05-18T12:20:51.090Z,26.10
2019-05-18T12:22:55.593Z,23.93
2019-05-18T12:25:00.099Z,26.83
2019-05-18T12:27:04.643Z,23.10
2019-05-18T12:29:09.186Z,28.37
2019-05-18T12:31:13.709Z,21.97
2019-05-18T12:33:18.261Z,22.57
2019-05-18T12:35:22.822Z,20.13
2019-05-18T12:37:27.346Z,23.13
2019-05-18T12:39:31.834Z,22.43
2019-05-18T12:41:36.339Z,25.60
2019-05-18T12:43:40.846Z,25.50
2019-05-18T12:45:45.337Z,27.40
2019-05-18T12:47:49.834Z,23.77
2019-05-18T12:49:54.362Z,23.20
2019-05-18T12:52:00.292Z,22.83
2019-05-18T12:54:04.948Z,22.23
2019-05-18T12:56:09.458Z,21.30
2019-05-18T12:58:13.966Z,31.53
2019-05-18T13:00:19.940Z,24.20
2019-05-18T13:02:24.423Z,23.83
2019-05-18T13:04:28.986Z,23.50
2019-05-18T13:06:33.502Z,24.83
2019-05-18T13:08:37.990Z,23.60
2019-05-18T13:10:42.510Z,23.13
2019-05-18T13:12:47.016Z,21.37
2019-05-18T13:14:51.574Z,24.13
2019-05-18T13:16:56.243Z,24.77
2019-05-18T13:19:00.751Z,23.27
2019-05-18T13:21:05.527Z,23.40
2019-05-18T13:23:10.151Z,22.53
2019-05-18T13:25:15.043Z,25.57
2019-05-18T13:27:19.646Z,23.37
2019-05-18T13:29:24.145Z,21.83
2019-05-18T13:31:28.635Z,23.23
2019-05-18T13:33:33.131Z,21.93
2019-05-18T13:35:37.971Z,22.97
2019-05-18T13:37:42.469Z,24.00
2019-05-18T13:39:47.065Z,22.50
2019-05-18T13:41:51.700Z,23.67
2019-05-18T13:43:56.492Z,22.03
2019-05-18T13:46:01.267Z,22.60
2019-05-18T13:48:05.805Z,20.40
2019-05-18T13:50:10.416Z,24.20
2019-05-18T13:52:14.967Z,22.10
2019-05-18T13:54:19.515Z,22.67
2019-05-18T13:56:24.280Z,21.03
2019-05-18T13:58:28.930Z,25.20
2019-05-18T14:00:33.486Z,22.57
2019-05-18T14:02:38.062Z,22.57
2019-05-18T14:04:42.732Z,25.83
2019-05-18T14:06:47.315Z,24.00
2019-05-18T14:08:52.075Z,26.60
2019-05-18T14:10:56.707Z,23.80
2019-05-18T14:13:01.278Z,22.97
2019-05-18T14:15:06.882Z,23.57
2019-05-18T14:17:11.379Z,25.00
2019-05-18T14:19:15.867Z,24.37
2019-05-18T14:21:20.347Z,26.77
2019-05-18T14:23:24.844Z,22.90
2019-05-18T14:25:29.343Z,27.27
2019-05-18T14:27:33.878Z,24.93
2019-05-18T14:29:38.371Z,25.70
2019-05-18T14:31:42.859Z,21.60
2019-05-18T14:33:47.389Z,22.60
2019-05-18T14:35:51.875Z,21.77
2019-05-18T14:37:56.580Z,21.60
2019-05-18T14:40:01.298Z,20.97
2019-05-18T14:42:05.806Z,20.23
2019-05-18T14:44:10.482Z,21.47
2019-05-18T14:46:14.982Z,18.60
2019-05-18T14:48:19.517Z,21.07
2019-05-18T14:50:24.267Z,21.60
2019-05-18T14:52:28.824Z,23.73
2019-05-18T14:54:33.423Z,19.80
2019-05-18T14:56:38.001Z,21.60
2019-05-18T14:58:42.642Z,18.50
2019-05-18T15:00:47.357Z,21.13
2019-05-18T15:02:51.951Z,30.40
2019-05-18T15:04:57.802Z,52.37
2019-05-18T15:07:02.339Z,22.40
2019-05-18T15:09:06.834Z,23.10
2019-05-18T15:11:11.362Z,60.83
2019-05-18T15:13:15.964Z,24.33
2019-05-18T15:15:20.577Z,22.03
2019-05-18T15:17:25.174Z,22.53
2019-05-18T15:19:29.675Z,23.13
2019-05-18T15:21:37.697Z,20.60
2019-05-18T15:23:42.399Z,21.93
2019-05-18T15:25:50.695Z,21.50
2019-05-18T15:27:53.504Z,21.57
2019-05-18T15:30:04.023Z,21.83
2019-05-18T15:32:08.741Z,23.37
2019-05-18T15:34:13.279Z,20.90
2019-05-18T15:36:17.775Z,19.83
2019-05-18T15:38:22.282Z,22.77
2019-05-18T15:40:27.100Z,19.50
2019-05-18T15:42:31.666Z,22.70
2019-05-18T15:44:36.154Z,22.57
2019-05-18T15:46:40.734Z,24.70
2019-05-18T15:48:45.607Z,19.07
2019-05-18T15:50:50.295Z,19.47
2019-05-18T15:52:54.793Z,21.93
2019-05-18T15:54:59.399Z,19.77
2019-05-18T15:57:03.914Z,21.00
2019-05-18T15:59:08.399Z,20.77
2019-05-18T16:01:12.923Z,21.63
2019-05-18T16:03:17.426Z,21.43
2019-05-18T16:05:21.922Z,22.80
2019-05-18T16:07:26.498Z,19.40
2019-05-18T16:09:31.079Z,21.70
2019-05-18T16:11:35.586Z,24.67
2019-05-18T16:13:40.100Z,31.20
2019-05-18T16:15:44.616Z,24.53
2019-05-18T16:17:49.189Z,24.70
2019-05-18T16:19:53.698Z,25.67
2019-05-18T16:21:58.182Z,24.87
2019-05-18T16:24:02.809Z,23.93
2019-05-18T16:26:20.731Z,25.90
2019-05-18T16:28:13.486Z,23.50
2019-05-18T16:30:17.985Z,26.10
2019-05-18T16:32:22.489Z,22.17
2019-05-18T16:34:27.078Z,27.03
2019-05-18T16:36:31.564Z,23.43
2019-05-18T16:38:36.070Z,22.10
2019-05-18T16:40:40.651Z,23.17
2019-05-18T16:42:46.640Z,21.10
2019-05-18T16:44:51.592Z,23.20
2019-05-18T16:46:56.143Z,21.83
2019-05-18T16:49:00.645Z,23.70
2019-05-18T16:51:05.235Z,27.83
2019-05-18T16:53:09.718Z,22.13
2019-05-18T16:55:14.390Z,22.67
2019-05-18T16:57:18.964Z,23.87
2019-05-18T16:59:23.477Z,26.10
2019-05-18T17:01:27.970Z,22.07
2019-05-18T17:03:32.484Z,24.33
2019-05-18T17:05:37.001Z,23.67
2019-05-18T17:07:41.555Z,23.33
2019-05-18T17:09:46.925Z,27.97
2019-05-18T17:11:51.526Z,25.37
2019-05-18T17:13:56.151Z,29.13
2019-05-18T17:16:00.741Z,25.80
2019-05-18T17:18:05.331Z,33.03
2019-05-18T17:20:09.985Z,29.70
2019-05-18T17:22:14.486Z,25.53
2019-05-18T17:24:19.054Z,30.17
2019-05-18T17:26:23.558Z,27.90
2019-05-18T17:28:28.154Z,31.70
2019-05-18T17:30:32.674Z,28.73
2019-05-18T17:32:37.191Z,31.10
2019-05-18T17:34:41.716Z,27.00
2019-05-18T17:36:46.206Z,27.20
2019-05-18T17:38:50.692Z,30.33
2019-05-18T17:40:55.230Z,29.30
2019-05-18T17:42:59.798Z,24.10
2019-05-18T17:45:04.646Z,27.10
2019-05-18T17:47:09.238Z,27.90
2019-05-18T17:49:26.389Z,26.23
2019-05-18T17:51:21.434Z,27.20
2019-05-18T17:53:27.417Z,31.13
2019-05-18T17:55:31.922Z,31.77
2019-05-18T17:57:36.451Z,30.73
2019-05-18T17:59:40.947Z,30.33
2019-05-18T18:01:45.446Z,30.03
2019-05-18T18:03:49.968Z,29.70
2019-05-18T18:05:54.550Z,29.50
2019-05-18T18:07:59.060Z,27.10
2019-05-18T18:10:03.726Z,29.20
2019-05-18T18:12:08.222Z,25.93
2019-05-18T18:14:13.012Z,35.83
2019-05-18T18:16:17.630Z,29.20
2019-05-18T18:18:22.203Z,26.50
2019-05-18T18:20:26.803Z,27.73
2019-05-18T18:22:31.315Z,28.47
2019-05-18T18:24:35.950Z,31.67
2019-05-18T18:26:40.514Z,32.40
2019-05-18T18:28:45.609Z,30.43
2019-05-18T18:30:52.699Z,29.20
2019-05-18T18:32:57.494Z,32.67
2019-05-18T18:35:02.271Z,29.37
2019-05-18T18:37:06.775Z,32.20
2019-05-18T18:39:11.291Z,30.90
2019-05-18T18:41:16.138Z,31.37
2019-05-18T18:43:20.983Z,32.85
2019-05-18T18:45:25.583Z,36.23
2019-05-18T18:47:30.378Z,29.32
2019-05-18T18:49:35.199Z,30.08
2019-05-18T18:51:39.724Z,33.60
2019-05-18T18:53:44.570Z,38.40
2019-05-18T18:55:49.355Z,31.75
2019-05-18T18:57:54.138Z,35.90
2019-05-18T18:59:58.923Z,37.70
2019-05-18T19:02:03.719Z,34.43
2019-05-18T19:04:08.628Z,37.78
2019-05-18T19:06:13.515Z,34.10
2019-05-18T19:08:18.403Z,35.65
2019-05-18T19:10:23.252Z,33.85
2019-05-18T19:12:28.215Z,38.88
2019-05-18T19:14:33.102Z,36.08
2019-05-18T19:16:37.982Z,34.35
2019-05-18T19:18:43.162Z,33.85
2019-05-18T19:20:48.252Z,37.00
2019-05-18T19:22:53.107Z,34.78
2019-05-18T19:24:57.982Z,33.08
2019-05-18T19:27:02.836Z,34.50
2019-05-18T19:29:07.695Z,38.33
2019-05-18T19:31:12.874Z,37.20
2019-05-18T19:33:17.654Z,36.80
2019-05-18T19:35:22.457Z,34.15
2019-05-18T19:37:27.394Z,37.15
2019-05-18T19:39:32.173Z,38.17
2019-05-18T19:41:37.114Z,44.10
2019-05-18T19:43:42.050Z,36.13
2019-05-18T19:45:46.946Z,33.13
2019-05-18T19:47:51.903Z,35.60
2019-05-18T19:49:56.830Z,39.15
2019-05-18T19:52:01.778Z,40.20
2019-05-18T19:54:06.584Z,43.70
2019-05-18T19:56:12.243Z,39.83
2019-05-18T19:58:17.098Z,39.88
2019-05-18T20:00:21.944Z,41.23
2019-05-18T20:02:26.842Z,36.83
2019-05-18T20:04:31.732Z,42.08
2019-05-18T20:06:36.591Z,43.00
2019-05-18T20:08:41.394Z,40.28
2019-05-18T20:10:46.360Z,39.90
2019-05-18T20:12:51.323Z,42.85
2019-05-18T20:14:56.102Z,45.78
2019-05-18T20:17:00.945Z,42.62
2019-05-18T20:19:05.843Z,45.30
2019-05-18T20:21:10.629Z,40.03
2019-05-18T20:23:15.410Z,41.83
2019-05-18T20:25:20.211Z,41.55
2019-05-18T20:27:24.991Z,40.28
2019-05-18T20:29:29.846Z,42.43
2019-05-18T20:31:34.727Z,56.92
2019-05-18T20:33:39.490Z,42.23
2019-05-18T20:35:44.298Z,50.92
2019-05-18T20:37:49.087Z,38.13
2019-05-18T20:39:53.877Z,40.78
2019-05-18T20:41:58.668Z,44.67
2019-05-18T20:44:09.163Z,39.70
2019-05-18T20:46:14.000Z,41.83
2019-05-18T20:48:18.782Z,42.73
2019-05-18T20:50:23.547Z,38.15
2019-05-18T20:52:28.331Z,45.92
2019-05-18T20:54:33.167Z,44.38
2019-05-18T20:56:37.953Z,41.53
2019-05-18T20:58:45.483Z,44.42
2019-05-18T21:00:50.565Z,43.38
2019-05-18T21:02:55.500Z,42.80
2019-05-18T21:05:00.361Z,46.73
2019-05-18T21:07:05.420Z,49.18
2019-05-18T21:09:10.270Z,52.43
2019-05-18T21:11:15.371Z,48.98
2019-05-18T21:13:20.480Z,50.38
2019-05-18T21:15:25.268Z,46.02
2019-05-18T21:17:30.043Z,50.55
2019-05-18T21:19:34.855Z,46.70
2019-05-18T21:21:42.065Z,51.40
2019-05-18T21:23:46.204Z,48.48
2019-05-18T21:25:50.998Z,48.05
2019-05-18T21:27:55.822Z,46.23
2019-05-18T21:30:00.607Z,46.55
2019-05-18T21:32:05.485Z,45.12
2019-05-18T21:34:10.254Z,42.15
2019-05-18T21:36:15.182Z,44.00
2019-05-18T21:38:19.955Z,40.33
2019-05-18T21:40:26.295Z,47.65
2019-05-18T21:42:31.387Z,44.20
2019-05-18T21:44:36.248Z,45.92
2019-05-18T21:46:41.159Z,44.20
2019-05-18T21:48:45.981Z,45.25
2019-05-18T21:50:50.761Z,45.88
2019-05-18T21:52:55.556Z,39.33
2019-05-18T21:55:00.386Z,40.85
2019-05-18T21:57:05.235Z,46.63
2019-05-18T21:59:12.219Z,39.53
2019-05-18T22:01:16.542Z,45.43
2019-05-18T22:03:21.463Z,46.80
2019-05-18T22:05:26.698Z,47.65
2019-05-18T22:07:31.547Z,46.20
2019-05-18T22:09:36.443Z,43.10
2019-05-18T22:11:41.229Z,44.33
2019-05-18T22:13:46.070Z,45.00
2019-05-18T22:15:50.906Z,42.20
2019-05-18T22:18:04.683Z,43.08
2019-05-18T22:20:09.669Z,47.90
2019-05-18T22:22:14.521Z,47.33
2019-05-18T22:24:19.320Z,44.48
2019-05-18T22:26:24.171Z,48.60
2019-05-18T22:28:28.948Z,47.60
2019-05-18T22:30:33.748Z,52.33
2019-05-18T22:32:38.607Z,50.78
2019-05-18T22:34:44.476Z,43.92
2019-05-18T22:36:49.278Z,50.05
2019-05-18T22:38:54.035Z,45.43
2019-05-18T22:40:58.810Z,55.45
2019-05-18T22:43:03.678Z,51.35
2019-05-18T22:45:08.450Z,43.00
2019-05-18T22:47:13.242Z,46.65
2019-05-18T22:49:18.026Z,45.95
2019-05-18T22:51:22.802Z,48.75
2019-05-18T22:53:27.794Z,50.65
2019-05-18T22:55:32.612Z,52.15
2019-05-18T22:57:37.496Z,46.85
2019-05-18T22:59:42.326Z,50.50
2019-05-18T23:01:47.102Z,49.67
2019-05-18T23:03:52.026Z,50.83
2019-05-18T23:05:56.907Z,44.73
2019-05-18T23:08:01.733Z,45.20
2019-05-18T23:10:06.807Z,46.75
2019-05-18T23:12:11.567Z,48.85
2019-05-18T23:14:16.418Z,50.30
2019-05-18T23:16:21.210Z,50.03
2019-05-18T23:18:25.987Z,52.62
2019-05-18T23:20:30.794Z,48.38
2019-05-18T23:22:35.567Z,44.90
2019-05-18T23:24:40.435Z,51.92
2019-05-18T23:26:45.214Z,46.55
2019-05-18T23:28:50.004Z,52.25
2019-05-18T23:30:54.767Z,42.88
2019-05-18T23:32:59.618Z,49.77
2019-05-18T23:35:04.648Z,52.45
2019-05-18T23:37:09.563Z,52.83
2019-05-18T23:39:14.402Z,46.30
2019-05-18T23:41:19.213Z,47.27
2019-05-18T23:43:24.002Z,45.90
2019-05-18T23:45:28.768Z,45.73
2019-05-18T23:47:33.630Z,44.30
2019-05-18T23:49:38.426Z,50.80
2019-05-18T23:51:43.190Z,50.75
2019-05-18T23:53:47.946Z,44.48
2019-05-18T23:55:52.770Z,40.90
2019-05-18T23:58:05.308Z,52.15
